sensor_id;sensor_type;location;lat;lon;timestamp;pressure;altitude;pressure_sealevel;temperature
71807;BMP280;59655;42.590;23.364;2022-12-04T00:01:34;92271.19;;;5.05
71807;BMP280;59655;42.590;23.364;2022-12-04T00:04:00;92272.44;;;5.10
71807;BMP280;59655;42.590;23.364;2022-12-04T00:06:26;92279.09;;;5.16
71807;BMP280;59655;42.590;23.364;2022-12-04T00:08:52;92286.28;;;5.10
71807;BMP280;59655;42.590;23.364;2022-12-04T00:11:21;92283.16;;;5.06
71807;BMP280;59655;42.590;23.364;2022-12-04T00:13:47;92288.41;;;4.95
71807;BMP280;59655;42.590;23.364;2022-12-04T00:16:16;92291.03;;;4.95
71807;BMP280;59655;42.590;23.364;2022-12-04T00:18:42;92288.41;;;5.00
71807;BMP280;59655;42.590;23.364;2022-12-04T00:21:10;92298.72;;;5.10
71807;BMP280;59655;42.590;23.364;2022-12-04T00:23:36;92297.28;;;5.09
71807;BMP280;59655;42.590;23.364;2022-12-04T00:26:15;92286.78;;;5.14
71807;BMP280;59655;42.590;23.364;2022-12-04T00:28:41;92291.78;;;5.12
71807;BMP280;59655;42.590;23.364;2022-12-04T00:31:09;92284.38;;;5.16
71807;BMP280;59655;42.590;23.364;2022-12-04T00:33:35;92283.44;;;5.19
71807;BMP280;59655;42.590;23.364;2022-12-04T00:36:04;92281.03;;;5.16
71807;BMP280;59655;42.590;23.364;2022-12-04T00:38:29;92288.69;;;5.19
71807;BMP280;59655;42.590;23.364;2022-12-04T00:40:55;92297.06;;;5.12
71807;BMP280;59655;42.590;23.364;2022-12-04T00:43:21;92291.78;;;5.18
71807;BMP280;59655;42.590;23.364;2022-12-04T00:45:48;92288.44;;;5.23
71807;BMP280;59655;42.590;23.364;2022-12-04T00:48:13;92290.59;;;5.24
71807;BMP280;59655;42.590;23.364;2022-12-04T00:50:39;92284.38;;;5.16
71807;BMP280;59655;42.590;23.364;2022-12-04T00:53:04;92286.31;;;5.21
71807;BMP280;59655;42.590;23.364;2022-12-04T00:55:29;92290.59;;;5.24
71807;BMP280;59655;42.590;23.364;2022-12-04T00:57:55;92292.25;;;5.16
71807;BMP280;59655;42.590;23.364;2022-12-04T01:00:20;92293.00;;;5.22
71807;BMP280;59655;42.590;23.364;2022-12-04T01:02:46;92288.97;;;5.27
71807;BMP280;59655;42.590;23.364;2022-12-04T01:05:11;92294.94;;;5.28
71807;BMP280;59655;42.590;23.364;2022-12-04T01:07:37;92289.41;;;5.20
71807;BMP280;59655;42.590;23.364;2022-12-04T01:10:05;92291.59;;;5.27
71807;BMP280;59655;42.590;23.364;2022-12-04T01:12:30;92289.66;;;5.28
71807;BMP280;59655;42.590;23.364;2022-12-04T01:14:56;92295.19;;;5.30
71807;BMP280;59655;42.590;23.364;2022-12-04T01:17:22;92287.47;;;5.20
71807;BMP280;59655;42.590;23.364;2022-12-04T01:19:47;92284.38;;;5.22
71807;BMP280;59655;42.590;23.364;2022-12-04T01:22:13;92284.16;;;5.26
71807;BMP280;59655;42.590;23.364;2022-12-04T01:24:38;92283.94;;;5.29
71807;BMP280;59655;42.590;23.364;2022-12-04T01:27:03;92277.22;;;5.28
71807;BMP280;59655;42.590;23.364;2022-12-04T01:29:29;92271.25;;;5.28
71807;BMP280;59655;42.590;23.364;2022-12-04T01:31:54;92273.88;;;5.22
71807;BMP280;59655;42.590;23.364;2022-12-04T01:34:20;92278.44;;;5.27
71807;BMP280;59655;42.590;23.364;2022-12-04T01:36:45;92274.34;;;5.20
71807;BMP280;59655;42.590;23.364;2022-12-04T01:39:11;92284.41;;;5.28
71807;BMP280;59655;42.590;23.364;2022-12-04T01:41:36;92288.22;;;5.32
71807;BMP280;59655;42.590;23.364;2022-12-04T01:46:51;92279.63;;;5.32
71807;BMP280;59655;42.590;23.364;2022-12-04T01:49:42;92280.31;;;5.32
71807;BMP280;59655;42.590;23.364;2022-12-04T01:52:10;92282.97;;;5.27
71807;BMP280;59655;42.590;23.364;2022-12-04T01:54:42;92279.84;;;5.28
71807;BMP280;59655;42.590;23.364;2022-12-04T01:57:13;92281.53;;;5.26
71807;BMP280;59655;42.590;23.364;2022-12-04T02:00:26;92283.94;;;5.29
71807;BMP280;59655;42.590;23.364;2022-12-04T02:02:35;92276.03;;;5.29
71807;BMP280;59655;42.590;23.364;2022-12-04T02:05:03;92276.03;;;5.29
71807;BMP280;59655;42.590;23.364;2022-12-04T02:07:29;92274.13;;;5.30
71807;BMP280;59655;42.590;23.364;2022-12-04T02:09:55;92269.31;;;5.22
71807;BMP280;59655;42.590;23.364;2022-12-04T02:17:48;92269.34;;;5.28
71807;BMP280;59655;42.590;23.364;2022-12-04T02:26:26;92267.66;;;5.25
71807;BMP280;59655;42.590;23.364;2022-12-04T02:31:33;92266.44;;;5.20
71807;BMP280;59655;42.590;23.364;2022-12-04T02:37:00;92266.25;;;5.30
71807;BMP280;59655;42.590;23.364;2022-12-04T02:42:02;92263.59;;;5.30
71807;BMP280;59655;42.590;23.364;2022-12-04T02:44:37;92261.69;;;5.30
71807;BMP280;59655;42.590;23.364;2022-12-04T02:47:10;92255.69;;;5.24
71807;BMP280;59655;42.590;23.364;2022-12-04T02:49:41;92255.44;;;5.22
71807;BMP280;59655;42.590;23.364;2022-12-04T02:52:12;92256.66;;;5.27
71807;BMP280;59655;42.590;23.364;2022-12-04T02:54:42;92263.84;;;5.32
71807;BMP280;59655;42.590;23.364;2022-12-04T02:57:30;92265.78;;;5.31
71807;BMP280;59655;42.590;23.364;2022-12-04T02:59:59;92262.88;;;5.35
71807;BMP280;59655;42.590;23.364;2022-12-04T03:02:40;92268.41;;;5.31
71807;BMP280;59655;42.590;23.364;2022-12-04T03:05:11;92264.06;;;5.22
71807;BMP280;59655;42.590;23.364;2022-12-04T03:07:56;92259.78;;;5.25
71807;BMP280;59655;42.590;23.364;2022-12-04T03:10:27;92257.84;;;5.20
71807;BMP280;59655;42.590;23.364;2022-12-04T03:12:57;92254.25;;;5.23
71807;BMP280;59655;42.590;23.364;2022-12-04T03:15:29;92255.22;;;5.26
71807;BMP280;59655;42.590;23.364;2022-12-04T03:18:17;92262.66;;;5.27
71807;BMP280;59655;42.590;23.364;2022-12-04T03:20:47;92262.16;;;5.29
71807;BMP280;59655;42.590;23.364;2022-12-04T03:23:17;92255.94;;;5.26
71807;BMP280;59655;42.590;23.364;2022-12-04T03:25:53;92260.25;;;5.29
71807;BMP280;59655;42.590;23.364;2022-12-04T03:28:28;92248.06;;;5.32
71807;BMP280;59655;42.590;23.364;2022-12-04T03:31:02;92258.59;;;5.32
71807;BMP280;59655;42.590;23.364;2022-12-04T03:33:34;92255.47;;;5.33
71807;BMP280;59655;42.590;23.364;2022-12-04T03:36:15;92258.34;;;5.30
71807;BMP280;59655;42.590;23.364;2022-12-04T03:38:54;92254.72;;;5.33
71807;BMP280;59655;42.590;23.364;2022-12-04T03:44:14;92256.44;;;5.30
71807;BMP280;59655;42.590;23.364;2022-12-04T03:46:54;92258.34;;;5.30
71807;BMP280;59655;42.590;23.364;2022-12-04T03:49:32;92255.72;;;5.30
71807;BMP280;59655;42.590;23.364;2022-12-04T03:52:33;92261.44;;;5.28
71807;BMP280;59655;42.590;23.364;2022-12-04T03:55:17;92256.63;;;5.32
71807;BMP280;59655;42.590;23.364;2022-12-04T03:57:45;92250.44;;;5.30
71807;BMP280;59655;42.590;23.364;2022-12-04T04:02:56;92250.91;;;5.28
71807;BMP280;59655;42.590;23.364;2022-12-04T04:05:24;92251.88;;;5.31
71807;BMP280;59655;42.590;23.364;2022-12-04T04:07:54;92253.78;;;5.24
71807;BMP280;59655;42.590;23.364;2022-12-04T04:10:24;92251.38;;;5.27
71807;BMP280;59655;42.590;23.364;2022-12-04T04:12:57;92248.06;;;5.32
71807;BMP280;59655;42.590;23.364;2022-12-04T04:15:47;92246.63;;;5.25
71807;BMP280;59655;42.590;23.364;2022-12-04T04:18:32;92253.56;;;5.28
71807;BMP280;59655;42.590;23.364;2022-12-04T04:21:19;92255.72;;;5.30
71807;BMP280;59655;42.590;23.364;2022-12-04T04:24:06;92256.44;;;5.30
71807;BMP280;59655;42.590;23.364;2022-12-04T04:26:45;92245.41;;;5.26
71807;BMP280;59655;42.590;23.364;2022-12-04T04:29:11;92249.50;;;5.27
71807;BMP280;59655;42.590;23.364;2022-12-04T04:39:37;92255.69;;;5.24
71807;BMP280;59655;42.590;23.364;2022-12-04T04:42:18;92263.38;;;5.28
71807;BMP280;59655;42.590;23.364;2022-12-04T04:48:02;92263.38;;;5.28
71807;BMP280;59655;42.590;23.364;2022-12-04T04:50:31;92261.44;;;5.22
71807;BMP280;59655;42.590;23.364;2022-12-04T04:53:01;92263.84;;;5.26
71807;BMP280;59655;42.590;23.364;2022-12-04T04:55:27;92256.66;;;5.27
71807;BMP280;59655;42.590;23.364;2022-12-04T04:58:09;92258.09;;;5.28
71807;BMP280;59655;42.590;23.364;2022-12-04T05:00:35;92269.34;;;5.28
71807;BMP280;59655;42.590;23.364;2022-12-04T05:03:01;92266.00;;;5.28
71807;BMP280;59655;42.590;23.364;2022-12-04T05:05:26;92266.47;;;5.26
71807;BMP280;59655;42.590;23.364;2022-12-04T05:07:51;92259.50;;;5.23
71807;BMP280;59655;42.590;23.364;2022-12-04T05:10:17;92268.38;;;5.20
71807;BMP280;59655;42.590;23.364;2022-12-04T05:12:42;92267.41;;;5.17
71807;BMP280;59655;42.590;23.364;2022-12-04T05:15:08;92271.25;;;5.22
71807;BMP280;59655;42.590;23.364;2022-12-04T05:17:34;92274.13;;;5.24
71807;BMP280;59655;42.590;23.364;2022-12-04T05:20:00;92277.44;;;5.24
71807;BMP280;59655;42.590;23.364;2022-12-04T05:22:29;92277.22;;;5.28
71807;BMP280;59655;42.590;23.364;2022-12-04T05:24:55;92276.50;;;5.22
71807;BMP280;59655;42.590;23.364;2022-12-04T05:27:21;92271.94;;;5.22
71807;BMP280;59655;42.590;23.364;2022-12-04T05:29:47;92272.94;;;5.25
71807;BMP280;59655;42.590;23.364;2022-12-04T05:32:12;92276.97;;;5.26
71807;BMP280;59655;42.590;23.364;2022-12-04T05:34:38;92282.47;;;5.22
71807;BMP280;59655;42.590;23.364;2022-12-04T05:37:04;92277.66;;;5.15
71807;BMP280;59655;42.590;23.364;2022-12-04T05:39:29;92279.56;;;5.09
71807;BMP280;59655;42.590;23.364;2022-12-04T05:41:54;92281.72;;;5.16
71807;BMP280;59655;42.590;23.364;2022-12-04T05:44:20;92284.63;;;5.24
71807;BMP280;59655;42.590;23.364;2022-12-04T05:46:46;92278.41;;;5.21
71807;BMP280;59655;42.590;23.364;2022-12-04T05:49:11;92282.44;;;5.17
71807;BMP280;59655;42.590;23.364;2022-12-04T05:51:36;92287.94;;;5.19
71807;BMP280;59655;42.590;23.364;2022-12-04T05:54:02;92282.94;;;5.21
71807;BMP280;59655;42.590;23.364;2022-12-04T05:56:27;92295.84;;;5.19
71807;BMP280;59655;42.590;23.364;2022-12-04T05:58:52;92284.63;;;5.24
71807;BMP280;59655;42.590;23.364;2022-12-04T06:01:21;92288.22;;;5.27
71807;BMP280;59655;42.590;23.364;2022-12-04T06:03:47;92291.56;;;5.21
71807;BMP280;59655;42.590;23.364;2022-12-04T06:06:18;92282.47;;;5.22
71807;BMP280;59655;42.590;23.364;2022-12-04T06:08:43;92284.13;;;5.20
71807;BMP280;59655;42.590;23.364;2022-12-04T06:11:13;92287.03;;;5.22
71807;BMP280;59655;42.590;23.364;2022-12-04T06:13:40;92287.03;;;5.22
71807;BMP280;59655;42.590;23.364;2022-12-04T06:16:13;92286.31;;;5.21
71807;BMP280;59655;42.590;23.364;2022-12-04T06:18:39;92287.25;;;5.24
71807;BMP280;59655;42.590;23.364;2022-12-04T06:21:05;92295.88;;;5.30
71807;BMP280;59655;42.590;23.364;2022-12-04T06:23:30;92294.22;;;5.27
71807;BMP280;59655;42.590;23.364;2022-12-04T06:25:55;92295.41;;;5.26
71807;BMP280;59655;42.590;23.364;2022-12-04T06:28:21;92299.72;;;5.29
71807;BMP280;59655;42.590;23.364;2022-12-04T06:30:46;92288.44;;;5.23
71807;BMP280;59655;42.590;23.364;2022-12-04T06:33:12;92291.06;;;5.23
71807;BMP280;59655;42.590;23.364;2022-12-04T06:35:37;92292.28;;;5.22
71807;BMP280;59655;42.590;23.364;2022-12-04T06:38:02;92306.16;;;5.22
71807;BMP280;59655;42.590;23.364;2022-12-04T06:40:28;92299.94;;;5.26
71807;BMP280;59655;42.590;23.364;2022-12-04T06:42:53;92296.84;;;5.27
71807;BMP280;59655;42.590;23.364;2022-12-04T06:45:18;92305.44;;;5.28
71807;BMP280;59655;42.590;23.364;2022-12-04T06:47:44;92308.09;;;5.28
71807;BMP280;59655;42.590;23.364;2022-12-04T06:50:09;92317.41;;;5.29
71807;BMP280;59655;42.590;23.364;2022-12-04T06:52:35;92315.75;;;5.31
71807;BMP280;59655;42.590;23.364;2022-12-04T06:55:00;92303.78;;;5.36
71807;BMP280;59655;42.590;23.364;2022-12-04T06:57:26;92308.31;;;5.35
71807;BMP280;59655;42.590;23.364;2022-12-04T06:59:51;92307.84;;;5.37
71807;BMP280;59655;42.590;23.364;2022-12-04T07:02:16;92304.25;;;5.40
71807;BMP280;59655;42.590;23.364;2022-12-04T07:04:42;92305.97;;;5.43
71807;BMP280;59655;42.590;23.364;2022-12-04T07:07:08;92300.94;;;5.45
71807;BMP280;59655;42.590;23.364;2022-12-04T07:09:34;92302.09;;;5.50
71807;BMP280;59655;42.590;23.364;2022-12-04T07:11:59;92309.78;;;5.53
71807;BMP280;59655;42.590;23.364;2022-12-04T07:14:25;92311.94;;;5.55
71807;BMP280;59655;42.590;23.364;2022-12-04T07:16:50;92307.41;;;5.61
71807;BMP280;59655;42.590;23.364;2022-12-04T07:19:16;92314.56;;;5.66
71807;BMP280;59655;42.590;23.364;2022-12-04T07:21:41;92311.19;;;5.65
71807;BMP280;59655;42.590;23.364;2022-12-04T07:24:08;92314.34;;;5.64
71807;BMP280;59655;42.590;23.364;2022-12-04T07:26:35;92312.66;;;5.66
71807;BMP280;59655;42.590;23.364;2022-12-04T07:29:01;92306.44;;;5.70
71807;BMP280;59655;42.590;23.364;2022-12-04T07:31:27;92310.03;;;5.72
71807;BMP280;59655;42.590;23.364;2022-12-04T07:33:54;92313.38;;;5.73
71807;BMP280;59655;42.590;23.364;2022-12-04T07:36:21;92309.09;;;5.75
71807;BMP280;59655;42.590;23.364;2022-12-04T07:38:48;92304.78;;;5.78
71807;BMP280;59655;42.590;23.364;2022-12-04T07:41:14;92319.38;;;5.79
71807;BMP280;59655;42.590;23.364;2022-12-04T07:43:40;92327.75;;;5.83
71807;BMP280;59655;42.590;23.364;2022-12-04T07:46:11;92322.47;;;5.89
71807;BMP280;59655;42.590;23.364;2022-12-04T07:48:37;92322.47;;;5.89
71807;BMP280;59655;42.590;23.364;2022-12-04T07:51:12;92312.44;;;5.93
71807;BMP280;59655;42.590;23.364;2022-12-04T07:53:38;92307.66;;;5.91
71807;BMP280;59655;42.590;23.364;2022-12-04T07:56:04;92311.47;;;5.90
71807;BMP280;59655;42.590;23.364;2022-12-04T07:58:31;92312.44;;;5.93
71807;BMP280;59655;42.590;23.364;2022-12-04T08:01:18;92310.72;;;5.95
71807;BMP280;59655;42.590;23.364;2022-12-04T08:03:45;92320.81;;;5.91
71807;BMP280;59655;42.590;23.364;2022-12-04T08:06:11;92313.63;;;5.92
71807;BMP280;59655;42.590;23.364;2022-12-04T08:08:37;92316.25;;;5.86
71807;BMP280;59655;42.590;23.364;2022-12-04T08:11:07;92315.78;;;5.93
71807;BMP280;59655;42.590;23.364;2022-12-04T08:13:33;92314.09;;;6.01
71807;BMP280;59655;42.590;23.364;2022-12-04T08:16:03;92303.31;;;5.99
71807;BMP280;59655;42.590;23.364;2022-12-04T08:18:29;92311.47;;;6.07
71807;BMP280;59655;42.590;23.364;2022-12-04T08:21:05;92317.44;;;6.07
71807;BMP280;59655;42.590;23.364;2022-12-04T08:23:30;92318.13;;;6.14
71807;BMP280;59655;42.590;23.364;2022-12-04T08:25:59;92324.63;;;6.13
71807;BMP280;59655;42.590;23.364;2022-12-04T08:28:25;92318.38;;;6.10
71807;BMP280;59655;42.590;23.364;2022-12-04T08:30:51;92313.38;;;6.18
71807;BMP280;59655;42.590;23.364;2022-12-04T08:33:16;92316.47;;;6.16
71807;BMP280;59655;42.590;23.364;2022-12-04T08:35:41;92321.75;;;6.22
71807;BMP280;59655;42.590;23.364;2022-12-04T08:38:07;92321.00;;;6.21
71807;BMP280;59655;42.590;23.364;2022-12-04T08:40:32;92315.72;;;6.27
71807;BMP280;59655;42.590;23.364;2022-12-04T08:42:57;92311.22;;;6.22
71807;BMP280;59655;42.590;23.364;2022-12-04T08:45:23;92309.28;;;6.22
71807;BMP280;59655;42.590;23.364;2022-12-04T08:47:48;92317.91;;;6.23
71807;BMP280;59655;42.590;23.364;2022-12-04T08:50:14;92320.75;;;6.25
71807;BMP280;59655;42.590;23.364;2022-12-04T08:52:39;92315.25;;;6.23
71807;BMP280;59655;42.590;23.364;2022-12-04T08:55:05;92321.50;;;6.25
71807;BMP280;59655;42.590;23.364;2022-12-04T08:57:31;92311.41;;;6.24
71807;BMP280;59655;42.590;23.364;2022-12-04T08:59:56;92309.03;;;6.26
71807;BMP280;59655;42.590;23.364;2022-12-04T09:02:21;92304.94;;;6.25
71807;BMP280;59655;42.590;23.364;2022-12-04T09:04:47;92311.91;;;6.22
71807;BMP280;59655;42.590;23.364;2022-12-04T09:07:12;92303.03;;;6.25
71807;BMP280;59655;42.590;23.364;2022-12-04T09:09:39;92308.56;;;6.33
71807;BMP280;59655;42.590;23.364;2022-12-04T09:12:04;92289.59;;;6.35
71807;BMP280;59655;42.590;23.364;2022-12-04T09:14:29;92300.38;;;6.37
71807;BMP280;59655;42.590;23.364;2022-12-04T09:16:55;92300.88;;;6.30
71807;BMP280;59655;42.590;23.364;2022-12-04T09:19:20;92299.47;;;6.23
71807;BMP280;59655;42.590;23.364;2022-12-04T09:21:46;92290.09;;;6.27
71807;BMP280;59655;42.590;23.364;2022-12-04T09:24:11;92280.28;;;6.34
71807;BMP280;59655;42.590;23.364;2022-12-04T09:26:37;92281.41;;;6.49
71807;BMP280;59655;42.590;23.364;2022-12-04T09:29:03;92271.78;;;6.58
71807;BMP280;59655;42.590;23.364;2022-12-04T09:31:29;92270.78;;;6.66
71807;BMP280;59655;42.590;23.364;2022-12-04T09:33:57;92278.22;;;6.74
71807;BMP280;59655;42.590;23.364;2022-12-04T09:36:22;92283.00;;;6.75
71807;BMP280;59655;42.590;23.364;2022-12-04T09:38:50;92280.34;;;6.75
71807;BMP280;59655;42.590;23.364;2022-12-04T09:44:09;92263.53;;;6.78
71807;BMP280;59655;42.590;23.364;2022-12-04T09:46:41;92278.00;;;6.66
71807;BMP280;59655;42.590;23.364;2022-12-04T09:49:15;92269.56;;;6.67
71807;BMP280;59655;42.590;23.364;2022-12-04T09:51:42;92265.53;;;6.66
71807;BMP280;59655;42.590;23.364;2022-12-04T09:54:19;92265.56;;;6.61
71807;BMP280;59655;42.590;23.364;2022-12-04T09:56:59;92248.75;;;6.64
71807;BMP280;59655;42.590;23.364;2022-12-04T09:59:27;92246.13;;;6.64
71807;BMP280;59655;42.590;23.364;2022-12-04T10:02:20;92242.50;;;6.67
71807;BMP280;59655;42.590;23.364;2022-12-04T10:04:50;92253.03;;;6.73
71807;BMP280;59655;42.590;23.364;2022-12-04T10:07:19;92243.88;;;6.79
71807;BMP280;59655;42.590;23.364;2022-12-04T10:10:22;92230.94;;;6.81
71807;BMP280;59655;42.590;23.364;2022-12-04T10:19:22;92214.13;;;6.84
71807;BMP280;59655;42.590;23.364;2022-12-04T10:21:56;92207.16;;;6.87
71807;BMP280;59655;42.590;23.364;2022-12-04T10:24:39;92211.72;;;6.86
71807;BMP280;59655;42.590;23.364;2022-12-04T10:27:29;92213.66;;;6.86
71807;BMP280;59655;42.590;23.364;2022-12-04T10:30:03;92203.81;;;6.86
71807;BMP280;59655;42.590;23.364;2022-12-04T10:32:31;92207.16;;;6.87
71807;BMP280;59655;42.590;23.364;2022-12-04T10:37:42;92199.97;;;6.87
71807;BMP280;59655;42.590;23.364;2022-12-04T10:40:22;92198.53;;;6.86
71807;BMP280;59655;42.590;23.364;2022-12-04T10:43:02;92196.66;;;6.81
71807;BMP280;59655;42.590;23.364;2022-12-04T10:45:30;92192.09;;;6.82
71807;BMP280;59655;42.590;23.364;2022-12-04T10:47:57;92199.53;;;6.78
71807;BMP280;59655;42.590;23.364;2022-12-04T10:50:23;92195.47;;;6.77
71807;BMP280;59655;42.590;23.364;2022-12-04T10:52:50;92188.06;;;6.75
71807;BMP280;59655;42.590;23.364;2022-12-04T10:55:28;92196.16;;;6.77
71807;BMP280;59655;42.590;23.364;2022-12-04T10:57:54;92198.38;;;6.73
71807;BMP280;59655;42.590;23.364;2022-12-04T11:02:49;92192.34;;;6.78
71807;BMP280;59655;42.590;23.364;2022-12-04T11:05:37;92189.75;;;6.73
71807;BMP280;59655;42.590;23.364;2022-12-04T11:08:05;92197.63;;;6.78
71807;BMP280;59655;42.590;23.364;2022-12-04T11:10:38;92190.03;;;6.63
71807;BMP280;59655;42.590;23.364;2022-12-04T11:15:43;92173.94;;;6.67
71807;BMP280;59655;42.590;23.364;2022-12-04T11:18:20;92175.38;;;6.74
71807;BMP280;59655;42.590;23.364;2022-12-04T11:21:06;92185.19;;;6.73
71807;BMP280;59655;42.590;23.364;2022-12-04T11:23:46;92189.69;;;6.78
71807;BMP280;59655;42.590;23.364;2022-12-04T11:26:13;92185.19;;;6.73
71807;BMP280;59655;42.590;23.364;2022-12-04T11:28:42;92191.44;;;6.70
71807;BMP280;59655;42.590;23.364;2022-12-04T11:31:16;92191.91;;;6.74
71807;BMP280;59655;42.590;23.364;2022-12-04T11:33:48;92192.16;;;6.70
71807;BMP280;59655;42.590;23.364;2022-12-04T11:36:33;92187.81;;;6.73
71807;BMP280;59655;42.590;23.364;2022-12-04T11:41:37;92179.69;;;6.71
71807;BMP280;59655;42.590;23.364;2022-12-04T11:44:18;92191.69;;;6.72
71807;BMP280;59655;42.590;23.364;2022-12-04T11:46:52;92186.88;;;6.70
71807;BMP280;59655;42.590;23.364;2022-12-04T11:49:26;92189.06;;;6.66
71807;BMP280;59655;42.590;23.364;2022-12-04T11:57:32;92205.16;;;6.63
71807;BMP280;59655;42.590;23.364;2022-12-04T12:13:41;92198.72;;;6.58
71807;BMP280;59655;42.590;23.364;2022-12-04T12:16:40;92191.97;;;6.63
71807;BMP280;59655;42.590;23.364;2022-12-04T12:30:21;92195.56;;;6.54
71807;BMP280;59655;42.590;23.364;2022-12-04T12:32:58;92198.22;;;6.54
71807;BMP280;59655;42.590;23.364;2022-12-04T12:38:17;92195.56;;;6.60
71807;BMP280;59655;42.590;23.364;2022-12-04T12:40:56;92189.34;;;6.57
71807;BMP280;59655;42.590;23.364;2022-12-04T12:43:26;92191.56;;;6.47
71807;BMP280;59655;42.590;23.364;2022-12-04T12:46:21;92189.16;;;6.49
71807;BMP280;59655;42.590;23.364;2022-12-04T12:55:41;92184.31;;;6.54
71807;BMP280;59655;42.590;23.364;2022-12-04T12:57:38;92185.78;;;6.55
71807;BMP280;59655;42.590;23.364;2022-12-04T13:00:15;92185.28;;;6.56
71807;BMP280;59655;42.590;23.364;2022-12-04T13:02:52;92187.66;;;6.54
71807;BMP280;59655;42.590;23.364;2022-12-04T13:05:24;92175.47;;;6.57
71807;BMP280;59655;42.590;23.364;2022-12-04T13:11:32;92176.88;;;6.58
71807;BMP280;59655;42.590;23.364;2022-12-04T13:13:55;92180.28;;;6.53
71807;BMP280;59655;42.590;23.364;2022-12-04T13:16:34;92184.09;;;6.52
71807;BMP280;59655;42.590;23.364;2022-12-04T13:24:52;92176.28;;;6.35
71807;BMP280;59655;42.590;23.364;2022-12-04T13:36:25;92175.28;;;6.43
71807;BMP280;59655;42.590;23.364;2022-12-04T13:41:31;92159.50;;;6.38
71807;BMP280;59655;42.590;23.364;2022-12-04T13:43:59;92165.44;;;6.49
71807;BMP280;59655;42.590;23.364;2022-12-04T13:46:35;92184.81;;;6.52
71807;BMP280;59655;42.590;23.364;2022-12-04T13:49:23;92180.28;;;6.53
71807;BMP280;59655;42.590;23.364;2022-12-04T13:51:54;92182.41;;;6.54
71807;BMP280;59655;42.590;23.364;2022-12-04T13:54:21;92188.22;;;6.41
71807;BMP280;59655;42.590;23.364;2022-12-04T13:56:54;92186.97;;;6.54
71807;BMP280;59655;42.590;23.364;2022-12-04T14:02:00;92192.28;;;6.48
71807;BMP280;59655;42.590;23.364;2022-12-04T14:07:00;92187.19;;;6.56
71807;BMP280;59655;42.590;23.364;2022-12-04T14:09:39;92199.41;;;6.59
71807;BMP280;59655;42.590;23.364;2022-12-04T14:12:08;92192.94;;;6.60
71807;BMP280;59655;42.590;23.364;2022-12-04T14:14:42;92194.16;;;6.59
71807;BMP280;59655;42.590;23.364;2022-12-04T14:17:30;92190.78;;;6.58
71807;BMP280;59655;42.590;23.364;2022-12-04T14:20:00;92190.81;;;6.53
71807;BMP280;59655;42.590;23.364;2022-12-04T14:24:51;92193.03;;;6.43
71807;BMP280;59655;42.590;23.364;2022-12-04T14:27:43;92193.97;;;6.45
71807;BMP280;59655;42.590;23.364;2022-12-04T14:32:53;92191.09;;;6.43
71807;BMP280;59655;42.590;23.364;2022-12-04T14:35:21;92188.22;;;6.47
71807;BMP280;59655;42.590;23.364;2022-12-04T14:40:37;92192.53;;;6.39
71807;BMP280;59655;42.590;23.364;2022-12-04T14:43:03;92191.81;;;6.38
71807;BMP280;59655;42.590;23.364;2022-12-04T14:45:45;92191.34;;;6.40
71807;BMP280;59655;42.590;23.364;2022-12-04T14:48:31;92198.75;;;6.47
71807;BMP280;59655;42.590;23.364;2022-12-04T14:51:31;92196.19;;;6.30
71807;BMP280;59655;42.590;23.364;2022-12-04T14:54:25;92195.16;;;6.39
71807;BMP280;59655;42.590;23.364;2022-12-04T14:59:46;92202.16;;;6.36
71807;BMP280;59655;42.590;23.364;2022-12-04T15:02:28;92208.41;;;6.33
71807;BMP280;59655;42.590;23.364;2022-12-04T15:04:55;92203.16;;;6.27
71807;BMP280;59655;42.590;23.364;2022-12-04T15:07:28;92204.31;;;6.32
71807;BMP280;59655;42.590;23.364;2022-12-04T15:09:57;92206.72;;;6.30
71807;BMP280;59655;42.590;23.364;2022-12-04T15:12:44;92219.66;;;6.28
71807;BMP280;59655;42.590;23.364;2022-12-04T15:15:18;92210.59;;;6.23
71807;BMP280;59655;42.590;23.364;2022-12-04T15:20:27;92208.41;;;6.27
71807;BMP280;59655;42.590;23.364;2022-12-04T15:22:55;92218.44;;;6.29
71807;BMP280;59655;42.590;23.364;2022-12-04T15:25:25;92210.34;;;6.21
71807;BMP280;59655;42.590;23.364;2022-12-04T15:27:54;92206.25;;;6.32
71807;BMP280;59655;42.590;23.364;2022-12-04T15:30:21;92214.91;;;6.21
71807;BMP280;59655;42.590;23.364;2022-12-04T15:32:50;92220.88;;;6.21
71807;BMP280;59655;42.590;23.364;2022-12-04T15:35:21;92230.94;;;6.23
71807;BMP280;59655;42.590;23.364;2022-12-04T15:37:47;92222.56;;;6.19
71807;BMP280;59655;42.590;23.364;2022-12-04T15:40:20;92220.91;;;6.16
71807;BMP280;59655;42.590;23.364;2022-12-04T15:42:45;92220.63;;;6.25
71807;BMP280;59655;42.590;23.364;2022-12-04T15:47:50;92225.00;;;6.05
71807;BMP280;59655;42.590;23.364;2022-12-04T15:55:23;92217.09;;;6.05
71807;BMP280;59655;42.590;23.364;2022-12-04T15:57:54;92211.81;;;6.11
71807;BMP280;59655;42.590;23.364;2022-12-04T16:00:30;92217.78;;;6.12
71807;BMP280;59655;42.590;23.364;2022-12-04T16:02:58;92211.09;;;6.11
71807;BMP280;59655;42.590;23.364;2022-12-04T16:07:57;92213.53;;;6.03
71807;BMP280;59655;42.590;23.364;2022-12-04T16:10:25;92216.88;;;6.03
71807;BMP280;59655;42.590;23.364;2022-12-04T16:12:53;92222.38;;;6.05
71807;BMP280;59655;42.590;23.364;2022-12-04T16:15:19;92228.84;;;6.04
71807;BMP280;59655;42.590;23.364;2022-12-04T16:17:44;92223.59;;;5.99
71807;BMP280;59655;42.590;23.364;2022-12-04T16:20:10;92223.63;;;5.93
71807;BMP280;59655;42.590;23.364;2022-12-04T16:22:38;92216.91;;;5.92
71807;BMP280;59655;42.590;23.364;2022-12-04T16:25:04;92212.81;;;5.97
71807;BMP280;59655;42.590;23.364;2022-12-04T16:27:31;92220.72;;;5.97
71807;BMP280;59655;42.590;23.364;2022-12-04T16:29:56;92214.50;;;5.94
71807;BMP280;59655;42.590;23.364;2022-12-04T16:32:28;92214.03;;;5.90
71807;BMP280;59655;42.590;23.364;2022-12-04T16:34:54;92216.66;;;5.90
71807;BMP280;59655;42.590;23.364;2022-12-04T16:37:20;92214.50;;;5.94
71807;BMP280;59655;42.590;23.364;2022-12-04T16:39:46;92215.25;;;5.89
71807;BMP280;59655;42.590;23.364;2022-12-04T16:44:45;92214.75;;;5.85
71807;BMP280;59655;42.590;23.364;2022-12-04T16:47:12;92212.13;;;5.85
71807;BMP280;59655;42.590;23.364;2022-12-04T16:49:38;92211.91;;;5.77
71807;BMP280;59655;42.590;23.364;2022-12-04T16:52:04;92214.06;;;5.79
71807;BMP280;59655;42.590;23.364;2022-12-04T16:54:30;92219.31;;;5.73
71807;BMP280;59655;42.590;23.364;2022-12-04T16:56:56;92224.84;;;5.75